Higginsport, Ohio
Current Conditions -  °F | °C
As of 8:55 AM on Monday 20 Oct 2014 (Local Time) from KFGX Reporting Station
Scattered Clouds Scattered Clouds  
Wind Chill: 41°   Ceiling: Unl
Heat Index: 45°   Visibility: 10mi
Dew Point: 41°   Wind: 6mph
Humidity: 88%   Direction: 190°S
Pressure: 30.05"   Gusts: NA
Location:  38.79°N, 83.97°W
Report Text: KFGX 201255Z AUTO 19005KT 10SM SCT120 07/05 A3005 RMK AO2 T00700052
Loading
Personal Weather Stations






























Interactive Weather Map New forecast layout! Learn more

10-Day Weather Forecast

Advertisements
Track Severe Weather on mobile